VOBG/BLR METAR and TAF weather

Enter ICAO airport designator
Station Type Date Time Source
VOBG METAR 2019/08/26 07:30 UTC NOAA

VOBG 260730Z 25010KT 9999 SCT012 SCT018 26/18 Q1012


Station Type Date Time Source
VOBG Decoded METAR 2019/08/26 07:30 UTC NOAA

Station name not available
Aug 26, 2019 - 03:30 AM EDT / 2019.08.26 0730 UTC
Wind: from the WSW (250 degrees) at 12 MPH (10 KT):0
Visibility: greater than 7 mile(s):0
Sky conditions: partly cloudy
Temperature: 78 F (26 C)
Dew Point: 64 F (18 C)
Relative Humidity: 61%
Pressure (altimeter): 29.88 in. Hg (1012 hPa)
ob: VOBG 260730Z 25010KT 9999 SCT012 SCT018 26/18 Q1012
cycle: 7

Station Type Date Time Source
VOBG TAF 2018/07/15 00:00 UTC NOAA

VOBG 142300Z 1500/1509 27010KT 6000 SCT010 BKN080
TEMPO 1500/1503 5000 BR SCT008 BKN080

Example: see airport list